createdAt,value
2018-08-20T00:02:39.025Z,7.33
2018-08-20T00:07:23.125Z,6.83
2018-08-20T00:12:11.246Z,7.13
2018-08-20T00:16:54.775Z,7.57
2018-08-20T00:21:38.185Z,7.37
2018-08-20T00:26:21.789Z,7.67
2018-08-20T00:31:05.122Z,8.20
2018-08-20T00:35:48.581Z,7.50
2018-08-20T00:40:32.008Z,7.60
2018-08-20T00:45:16.622Z,9.13
2018-08-20T00:50:00.996Z,10.27
2018-08-20T00:54:45.536Z,9.43
2018-08-20T00:59:29.034Z,10.13
2018-08-20T01:04:12.390Z,10.03
2018-08-20T01:08:55.998Z,11.00
2018-08-20T01:13:39.488Z,11.47
2018-08-20T01:18:26.734Z,10.33
2018-08-20T01:23:10.113Z,10.20
2018-08-20T01:27:53.561Z,10.30
2018-08-20T01:32:36.995Z,10.13
2018-08-20T01:37:21.607Z,10.50
2018-08-20T01:42:04.946Z,10.33
2018-08-20T01:46:52.057Z,9.60
2018-08-20T01:51:35.366Z,9.73
2018-08-20T01:56:18.797Z,9.07
2018-08-20T02:01:02.018Z,9.60
2018-08-20T02:05:48.781Z,9.20
2018-08-20T02:10:32.112Z,8.93
2018-08-20T02:15:16.723Z,8.77
2018-08-20T02:20:00.022Z,9.47
2018-08-20T02:24:44.390Z,7.60
2018-08-20T02:29:27.812Z,7.93
2018-08-20T02:34:11.268Z,7.57
2018-08-20T02:38:54.811Z,8.07
2018-08-20T02:43:38.209Z,7.67
2018-08-20T02:48:21.816Z,6.97
2018-08-20T02:53:05.058Z,6.43
2018-08-20T02:57:48.566Z,7.00
2018-08-20T03:02:31.976Z,6.40
2018-08-20T03:07:15.415Z,6.63
2018-08-20T03:11:58.785Z,6.37
2018-08-20T03:16:43.278Z,5.60
2018-08-20T03:21:26.720Z,5.93
2018-08-20T03:26:10.457Z,6.20
2018-08-20T03:30:53.877Z,6.27
2018-08-20T03:35:37.514Z,5.80
2018-08-20T03:40:20.766Z,5.90
2018-08-20T03:45:07.607Z,6.57
2018-08-20T03:49:51.400Z,7.13
2018-08-20T03:54:34.915Z,5.47
2018-08-20T03:59:30.630Z,6.37
2018-08-20T04:04:14.320Z,7.47
2018-08-20T04:08:57.588Z,7.87
2018-08-20T04:13:41.026Z,7.47
2018-08-20T04:18:24.528Z,7.40
2018-08-20T04:23:07.833Z,6.53
2018-08-20T04:27:51.288Z,7.03
2018-08-20T04:32:34.732Z,7.00
2018-08-20T04:37:18.373Z,6.37
2018-08-20T04:42:05.160Z,6.47
2018-08-20T04:46:48.975Z,5.90
2018-08-20T04:51:32.562Z,6.10
2018-08-20T04:56:16.114Z,6.13
2018-08-20T05:01:02.455Z,6.33
2018-08-20T05:05:47.208Z,6.10
2018-08-20T05:10:30.697Z,5.10
2018-08-20T05:15:15.177Z,5.47
2018-08-20T05:19:58.424Z,5.60
2018-08-20T05:24:43.010Z,5.73
2018-08-20T05:29:26.518Z,5.37
2018-08-20T05:34:10.774Z,5.43
2018-08-20T05:38:54.350Z,5.23
2018-08-20T05:43:37.621Z,5.40
2018-08-20T05:48:21.320Z,4.90
2018-08-20T05:53:06.001Z,5.10
2018-08-20T05:57:49.589Z,5.03
2018-08-20T06:02:32.919Z,4.83
2018-08-20T06:07:16.298Z,4.87
2018-08-20T06:11:59.504Z,5.17
2018-08-20T06:16:42.946Z,4.90
2018-08-20T06:21:26.303Z,4.53
2018-08-20T06:26:10.071Z,4.53
2018-08-20T06:30:53.563Z,4.53
2018-08-20T06:35:37.175Z,5.03
2018-08-20T06:40:20.577Z,4.40
2018-08-20T06:45:06.247Z,4.20
2018-08-20T06:49:49.646Z,4.33
2018-08-20T06:54:33.465Z,4.10
2018-08-20T06:59:16.751Z,4.90
2018-08-20T07:04:00.177Z,4.10
2018-08-20T07:08:44.296Z,3.93
2018-08-20T07:13:33.822Z,3.43
2018-08-20T07:18:17.380Z,4.03
2018-08-20T07:23:00.757Z,3.50
2018-08-20T07:27:44.119Z,3.80
2018-08-20T07:32:27.580Z,3.80
2018-08-20T07:37:13.472Z,3.73
2018-08-20T07:41:56.778Z,3.80
2018-08-20T07:46:40.263Z,3.67
2018-08-20T07:51:23.649Z,3.67
2018-08-20T07:56:07.490Z,3.67
2018-08-20T08:00:50.904Z,4.03
2018-08-20T08:05:35.393Z,3.93
2018-08-20T08:10:18.770Z,3.63
2018-08-20T08:15:02.310Z,3.50
2018-08-20T08:19:45.722Z,4.13
2018-08-20T08:24:29.283Z,4.33
2018-08-20T08:29:12.769Z,5.45
2018-08-20T08:33:56.272Z,3.87
2018-08-20T08:38:40.956Z,4.20
2018-08-20T08:43:24.407Z,4.05
2018-08-20T08:48:07.709Z,3.22
2018-08-20T08:52:51.203Z,3.90
2018-08-20T08:57:36.773Z,3.58
2018-08-20T09:02:20.486Z,3.98
2018-08-20T09:07:04.076Z,3.80
2018-08-20T09:11:47.522Z,3.58
2018-08-20T09:16:31.207Z,3.05
2018-08-20T09:21:14.485Z,4.10
2018-08-20T09:25:57.934Z,3.75
2018-08-20T09:30:41.320Z,4.10
2018-08-20T09:35:25.061Z,3.40
2018-08-20T09:40:09.634Z,3.90
2018-08-20T09:44:56.581Z,4.30
2018-08-20T09:49:40.038Z,3.30
2018-08-20T09:54:23.688Z,3.72
2018-08-20T09:59:07.034Z,3.85
2018-08-20T10:03:50.391Z,4.20
2018-08-20T10:08:33.752Z,3.83
2018-08-20T10:13:18.285Z,3.60
2018-08-20T10:18:01.622Z,3.90
2018-08-20T10:22:44.863Z,3.83
2018-08-20T10:27:28.472Z,4.37
2018-08-20T10:32:11.924Z,4.20
2018-08-20T10:36:56.332Z,3.80
2018-08-20T10:41:39.758Z,3.27
2018-08-20T10:46:27.133Z,4.08
2018-08-20T10:51:17.655Z,4.53
2018-08-20T10:56:01.569Z,4.87
2018-08-20T11:00:48.002Z,5.03
2018-08-20T11:05:36.154Z,4.30
2018-08-20T11:10:19.563Z,4.45
2018-08-20T11:15:05.043Z,3.85
2018-08-20T11:19:49.734Z,4.45
2018-08-20T11:24:35.907Z,4.50
2018-08-20T11:29:19.935Z,4.03
2018-08-20T11:34:06.408Z,4.12
2018-08-20T11:38:49.856Z,4.78
2018-08-20T11:43:33.546Z,4.28
2018-08-20T11:48:16.998Z,4.15
2018-08-20T11:53:00.609Z,3.95
2018-08-20T11:57:43.787Z,4.28
2018-08-20T12:02:27.230Z,4.10
2018-08-20T12:07:10.896Z,5.37
2018-08-20T12:11:54.285Z,4.40
2018-08-20T12:16:37.773Z,4.65
2018-08-20T12:21:22.430Z,4.67
2018-08-20T12:26:05.691Z,4.50
2018-08-20T12:30:49.256Z,5.20
2018-08-20T12:35:32.584Z,12.28
2018-08-20T12:40:15.974Z,7.33
2018-08-20T12:44:59.390Z,5.85
2018-08-20T12:49:42.916Z,4.40
2018-08-20T12:54:26.517Z,3.80
2018-08-20T12:59:10.296Z,3.72
2018-08-20T13:03:54.662Z,4.03
2018-08-20T13:08:37.971Z,4.08
2018-08-20T13:13:21.554Z,4.10
2018-08-20T13:18:04.924Z,4.45
2018-08-20T13:22:49.070Z,4.25
2018-08-20T13:27:32.351Z,4.20
2018-08-20T13:32:15.570Z,4.85
2018-08-20T13:37:04.641Z,4.37
2018-08-20T13:41:48.368Z,4.70
2018-08-20T13:46:40.495Z,4.05
2018-08-20T13:51:28.077Z,4.40
2018-08-20T13:56:13.794Z,4.12
2018-08-20T14:00:58.750Z,4.20
2018-08-20T14:05:43.084Z,4.12
2018-08-20T14:10:37.230Z,4.62
2018-08-20T14:15:20.825Z,4.72
2018-08-20T14:20:05.279Z,4.62
2018-08-20T14:24:48.624Z,4.17
2018-08-20T14:29:32.079Z,4.95
2018-08-20T14:34:15.685Z,5.00
2018-08-20T14:39:00.181Z,4.60
2018-08-20T14:43:43.781Z,4.17
2018-08-20T14:48:27.195Z,4.77
2018-08-20T14:53:10.712Z,5.10
2018-08-20T14:57:54.385Z,4.58
2018-08-20T15:02:38.864Z,4.37
2018-08-20T15:07:22.124Z,4.87
2018-08-20T15:12:05.479Z,4.80
2018-08-20T15:16:51.518Z,4.80
2018-08-20T15:21:35.348Z,5.13
2018-08-20T15:26:18.952Z,4.80
2018-08-20T15:31:02.435Z,5.23
2018-08-20T15:35:45.969Z,4.53
2018-08-20T15:40:29.326Z,4.70
2018-08-20T15:45:23.466Z,5.00
2018-08-20T15:50:06.838Z,4.37
2018-08-20T15:54:50.308Z,5.00
2018-08-20T15:59:34.030Z,5.03
2018-08-20T16:04:17.659Z,4.63
2018-08-20T16:09:01.080Z,4.80
2018-08-20T16:13:44.661Z,4.87
2018-08-20T16:18:29.034Z,4.27
2018-08-20T16:23:13.679Z,4.87
2018-08-20T16:27:58.572Z,5.10
2018-08-20T16:32:43.079Z,4.90
2018-08-20T16:37:28.191Z,4.70
2018-08-20T16:42:12.066Z,5.10
2018-08-20T16:46:56.616Z,5.13
2018-08-20T16:51:40.652Z,5.47
2018-08-20T16:56:24.962Z,5.37
2018-08-20T17:01:34.174Z,5.17
2018-08-20T17:06:18.180Z,5.77
2018-08-20T17:11:02.030Z,4.90
2018-08-20T17:15:45.637Z,5.00
2018-08-20T17:20:28.966Z,5.50
2018-08-20T17:25:13.665Z,5.33
2018-08-20T17:29:57.298Z,5.53
2018-08-20T17:34:42.779Z,4.93
2018-08-20T17:39:26.231Z,4.60
2018-08-20T17:44:10.243Z,5.60
2018-08-20T17:48:53.914Z,4.93
2018-08-20T17:53:51.227Z,5.23
2018-08-20T17:58:42.151Z,5.03
2018-08-20T18:03:34.386Z,4.50
2018-08-20T18:08:20.612Z,5.43
2018-08-20T18:13:04.943Z,5.63
2018-08-20T18:17:49.611Z,5.63
2018-08-20T18:22:33.166Z,5.10
2018-08-20T18:27:16.620Z,5.20
2018-08-20T18:32:03.833Z,4.87
2018-08-20T18:36:47.420Z,4.93
2018-08-20T18:42:08.652Z,5.70
2018-08-20T18:46:53.978Z,5.13
2018-08-20T18:51:37.510Z,5.70
2018-08-20T18:56:21.255Z,5.43
2018-08-20T19:01:04.692Z,5.90
2018-08-20T19:05:52.154Z,5.40
2018-08-20T19:10:35.676Z,5.03
2018-08-20T19:15:46.657Z,5.10
2018-08-20T19:20:29.897Z,5.43
2018-08-20T19:25:14.541Z,5.30
2018-08-20T19:29:58.951Z,4.63
2018-08-20T19:34:42.711Z,5.17
2018-08-20T19:39:26.054Z,5.87
2018-08-20T19:44:09.566Z,6.17
2018-08-20T19:48:57.256Z,7.53
2018-08-20T19:53:40.745Z,6.33
2018-08-20T19:58:38.406Z,6.47
2018-08-20T20:03:22.012Z,7.23
2018-08-20T20:08:05.477Z,7.40
2018-08-20T20:12:53.777Z,6.97
2018-08-20T20:17:37.187Z,7.57
2018-08-20T20:22:21.689Z,6.90
2018-08-20T20:27:05.255Z,5.37
2018-08-20T20:31:48.790Z,5.80
2018-08-20T20:36:33.028Z,7.07
2018-08-20T20:41:16.359Z,6.33
2018-08-20T20:45:59.928Z,5.93
2018-08-20T20:50:43.250Z,6.00
2018-08-20T20:55:27.714Z,5.80
2018-08-20T21:00:11.012Z,6.10
2018-08-20T21:05:03.850Z,6.43
2018-08-20T21:09:48.874Z,5.87
2018-08-20T21:14:32.240Z,5.60
2018-08-20T21:19:15.720Z,6.37
2018-08-20T21:24:00.142Z,5.60
2018-08-20T21:28:48.566Z,6.30
2018-08-20T21:33:31.936Z,5.73
2018-08-20T21:38:15.327Z,5.80
2018-08-20T21:42:59.769Z,6.20
2018-08-20T21:47:43.020Z,6.00
2018-08-20T21:52:26.641Z,6.33
2018-08-20T21:57:10.017Z,5.80
2018-08-20T22:01:56.538Z,6.07
2018-08-20T22:06:40.023Z,6.10
2018-08-20T22:11:24.554Z,6.83
2018-08-20T22:16:24.271Z,6.70
2018-08-20T22:21:11.757Z,5.73
2018-08-20T22:25:57.324Z,5.37
2018-08-20T22:30:45.021Z,5.30
2018-08-20T22:35:28.620Z,6.57
2018-08-20T22:40:11.984Z,6.13
2018-08-20T22:44:56.345Z,5.80
2018-08-20T22:49:39.685Z,6.30
2018-08-20T22:54:23.314Z,6.33
2018-08-20T22:59:09.412Z,6.20
2018-08-20T23:03:52.859Z,5.90
2018-08-20T23:08:36.214Z,6.40
2018-08-20T23:13:21.679Z,6.33
2018-08-20T23:18:05.330Z,6.67
2018-08-20T23:22:48.761Z,6.00
2018-08-20T23:27:35.696Z,6.20
2018-08-20T23:32:19.416Z,6.60
2018-08-20T23:37:02.745Z,5.90
2018-08-20T23:41:47.188Z,5.60
2018-08-20T23:46:34.347Z,5.20
2018-08-20T23:51:17.799Z,5.93
2018-08-20T23:56:01.248Z,5.93
